Time;durP1;ratioP1;P1;durP2;ratioP2;P2;SDS_P1;SDS_P2;PMS_P1;PMS_P2;Temp;Humidity;BMP_temperature;BMP_pressure;BME280_temperature;BME280_humidity;BME280_pressure;Samples;Min_cycle;Max_cycle;Signal;HPM_P1;HPM_P2
2022/09/06 00:01:11;;;;;;;5.20;3.93;;;;;;;;;;5033961;28;20481;-63
2022/09/06 00:03:38;;;;;;;5.93;4.10;;;;;;;;;;5029089;28;20898;-64
2022/09/06 00:06:10;;;;;;;7.00;3.70;;;;;;;;;;5014364;28;20499;-63
2022/09/06 00:08:37;;;;;;;4.20;3.40;;;;;;;;;;5023951;28;20881;-63
2022/09/06 00:11:04;;;;;;;5.00;4.50;;;;;;;;;;5034153;28;20473;-63
2022/09/06 00:13:32;;;;;;;5.47;4.23;;;;;;;;;;5025279;28;20447;-64
2022/09/06 00:16:07;;;;;;;10.23;4.63;;;;;;;;;;5013896;28;20442;-64
2022/09/06 00:18:34;;;;;;;7.70;5.27;;;;;;;;;;5021897;28;20455;-63
2022/09/06 00:21:01;;;;;;;6.80;5.10;;;;;;;;;;5033547;28;20481;-64
2022/09/06 00:23:29;;;;;;;7.07;4.27;;;;;;;;;;5031954;28;20470;-64
2022/09/06 00:26:03;;;;;;;4.97;4.17;;;;;;;;;;5033684;28;20441;-64
2022/09/06 00:28:31;;;;;;;4.40;4.00;;;;;;;;;;5025907;28;20441;-64
2022/09/06 00:30:58;;;;;;;4.57;3.80;;;;;;;;;;5013651;28;20477;-63
2022/09/06 00:33:27;;;;;;;6.27;4.67;;;;;;;;;;5017898;28;20920;-64
2022/09/06 00:36:00;;;;;;;4.67;4.20;;;;;;;;;;5033275;28;20916;-64
2022/09/06 00:38:27;;;;;;;12.87;3.90;;;;;;;;;;5023946;28;20437;-63
2022/09/06 00:40:55;;;;;;;5.87;4.40;;;;;;;;;;5013444;28;20486;-64
2022/09/06 00:43:22;;;;;;;7.40;5.00;;;;;;;;;;5021236;28;20456;-64
2022/09/06 00:45:50;;;;;;;5.27;3.93;;;;;;;;;;5033341;28;20472;-64
2022/09/06 00:48:17;;;;;;;7.77;3.53;;;;;;;;;;5025984;28;20476;-63
2022/09/06 00:50:47;;;;;;;4.80;4.00;;;;;;;;;;5013538;28;20482;-63
2022/09/06 00:53:15;;;;;;;4.40;3.83;;;;;;;;;;5014195;28;20537;-63
2022/09/06 00:55:42;;;;;;;4.60;3.83;;;;;;;;;;5013135;28;20442;-63
2022/09/06 00:58:11;;;;;;;5.50;4.03;;;;;;;;;;5017472;28;20484;-63
2022/09/06 01:00:38;;;;;;;4.90;4.40;;;;;;;;;;5032730;28;20451;-64
2022/09/06 01:03:06;;;;;;;4.97;4.47;;;;;;;;;;5029148;28;20997;-63
2022/09/06 01:05:38;;;;;;;5.83;4.30;;;;;;;;;;5013008;28;21021;-63
2022/09/06 01:08:14;;;;;;;6.30;3.70;;;;;;;;;;5018509;28;20434;-64
2022/09/06 01:10:52;;;;;;;4.73;4.00;;;;;;;;;;5032775;28;20433;-63
2022/09/06 01:13:23;;;;;;;5.80;3.70;;;;;;;;;;5031756;28;20457;-63
2022/09/06 01:15:55;;;;;;;6.73;4.20;;;;;;;;;;5032897;28;20905;-63
2022/09/06 01:18:27;;;;;;;4.87;4.10;;;;;;;;;;5012826;28;20522;-63
2022/09/06 01:21:03;;;;;;;4.07;3.67;;;;;;;;;;5012784;28;20493;-63
2022/09/06 01:23:49;;;;;;;5.07;3.63;;;;;;;;;;5012881;28;20478;-63
2022/09/06 01:26:39;;;;;;;3.90;3.37;;;;;;;;;;5013777;28;20446;-63
2022/09/06 01:29:10;;;;;;;4.63;4.13;;;;;;;;;;5032355;28;20521;-63
2022/09/06 01:31:42;;;;;;;5.33;3.93;;;;;;;;;;5030011;28;20493;-63
2022/09/06 01:34:16;;;;;;;5.40;4.50;;;;;;;;;;5032417;28;20495;-63
2022/09/06 01:36:47;;;;;;;4.63;4.00;;;;;;;;;;5021775;28;20442;-63
2022/09/06 01:39:21;;;;;;;4.67;4.00;;;;;;;;;;5012740;28;20473;-63
2022/09/06 01:41:49;;;;;;;5.80;4.13;;;;;;;;;;5023065;28;20559;-63
2022/09/06 01:44:18;;;;;;;4.37;3.53;;;;;;;;;;5031969;28;20504;-64
2022/09/06 01:46:52;;;;;;;5.03;3.33;;;;;;;;;;5022366;28;20517;-63
2022/09/06 01:49:25;;;;;;;4.17;3.17;;;;;;;;;;5012386;28;20446;-63
2022/09/06 01:51:58;;;;;;;6.43;4.43;;;;;;;;;;5013719;28;20517;-63
2022/09/06 01:54:40;;;;;;;5.60;4.00;;;;;;;;;;5012563;28;20449;-65
2022/09/06 01:57:13;;;;;;;4.10;3.47;;;;;;;;;;5023348;28;20441;-62
2022/09/06 01:59:48;;;;;;;4.60;4.10;;;;;;;;;;5032190;28;20438;-63
2022/09/06 02:02:20;;;;;;;5.77;3.97;;;;;;;;;;5015283;28;20482;-62
2022/09/06 02:04:50;;;;;;;6.97;4.37;;;;;;;;;;5012481;28;20446;-63
2022/09/06 02:07:19;;;;;;;4.77;4.00;;;;;;;;;;5028125;28;20790;-63
2022/09/06 02:09:50;;;;;;;4.67;4.07;;;;;;;;;;5031943;28;20445;-64
2022/09/06 02:12:19;;;;;;;5.17;3.73;;;;;;;;;;5016652;28;20443;-63
2022/09/06 02:14:50;;;;;;;5.37;4.27;;;;;;;;;;5012394;28;20512;-63
2022/09/06 02:17:20;;;;;;;4.30;3.90;;;;;;;;;;5026602;28;20541;-62
2022/09/06 02:19:49;;;;;;;4.27;3.70;;;;;;;;;;5031907;28;20446;-63
2022/09/06 02:22:18;;;;;;;4.73;4.03;;;;;;;;;;5012369;28;21011;-63
2022/09/06 02:24:48;;;;;;;4.23;3.67;;;;;;;;;;5012127;28;20800;-62
2022/09/06 02:27:15;;;;;;;4.97;3.90;;;;;;;;;;5031395;28;20438;-63
2022/09/06 02:29:43;;;;;;;6.73;4.30;;;;;;;;;;5032027;28;20920;-62
2022/09/06 02:32:15;;;;;;;5.27;4.20;;;;;;;;;;5027888;28;20544;-63
2022/09/06 02:34:44;;;;;;;4.83;4.27;;;;;;;;;;5031745;28;20495;-63
2022/09/06 02:37:13;;;;;;;5.40;4.60;;;;;;;;;;5013406;28;20438;-63
2022/09/06 02:39:40;;;;;;;5.80;4.33;;;;;;;;;;5011997;28;20929;-62
2022/09/06 02:42:09;;;;;;;7.30;4.10;;;;;;;;;;5028312;28;20535;-63
2022/09/06 02:44:37;;;;;;;5.40;4.40;;;;;;;;;;5031593;28;20438;-63
2022/09/06 02:47:04;;;;;;;4.80;3.93;;;;;;;;;;5012238;28;20467;-63
2022/09/06 02:49:33;;;;;;;5.40;4.00;;;;;;;;;;5011955;28;20431;-62
2022/09/06 02:52:01;;;;;;;8.73;4.90;;;;;;;;;;5025108;28;20473;-63
2022/09/06 02:54:29;;;;;;;5.50;3.57;;;;;;;;;;5031329;28;20468;-63
2022/09/06 02:56:57;;;;;;;5.93;3.83;;;;;;;;;;5033199;28;20452;-63
2022/09/06 02:59:25;;;;;;;4.80;4.03;;;;;;;;;;5034492;28;20500;-63
2022/09/06 03:01:52;;;;;;;8.10;3.40;;;;;;;;;;5029115;28;20478;-63
2022/09/06 03:04:19;;;;;;;6.60;3.70;;;;;;;;;;5015630;28;20438;-63
2022/09/06 03:06:48;;;;;;;4.77;3.67;;;;;;;;;;5019309;28;20445;-62
2022/09/06 03:09:16;;;;;;;4.67;4.20;;;;;;;;;;5035135;28;20503;-62
2022/09/06 03:11:43;;;;;;;5.27;3.10;;;;;;;;;;5031014;28;20446;-63
2022/09/06 03:14:10;;;;;;;5.07;4.27;;;;;;;;;;5016301;28;20446;-64
2022/09/06 03:16:38;;;;;;;6.47;3.90;;;;;;;;;;5028972;28;20985;-63
2022/09/06 03:19:05;;;;;;;5.43;4.20;;;;;;;;;;5030970;28;20449;-67
2022/09/06 03:21:33;;;;;;;4.37;3.33;;;;;;;;;;5033965;28;20795;-63
2022/09/06 03:24:01;;;;;;;5.60;4.23;;;;;;;;;;5034359;28;20434;-63
2022/09/06 03:26:29;;;;;;;7.07;5.40;;;;;;;;;;5034711;28;20801;-63
2022/09/06 03:28:57;;;;;;;5.77;4.27;;;;;;;;;;5033157;28;20442;-63
2022/09/06 03:31:24;;;;;;;5.73;3.60;;;;;;;;;;5033526;28;20786;-63
2022/09/06 03:33:52;;;;;;;6.93;4.80;;;;;;;;;;5029891;28;20429;-63
2022/09/06 03:36:19;;;;;;;12.23;5.73;;;;;;;;;;5033204;28;20461;-65
2022/09/06 03:38:47;;;;;;;4.93;3.73;;;;;;;;;;5033083;28;20460;-63
2022/09/06 03:41:15;;;;;;;5.50;4.30;;;;;;;;;;5034269;28;20448;-63
2022/09/06 03:43:43;;;;;;;6.67;5.00;;;;;;;;;;5032198;28;20481;-63
2022/09/06 03:46:10;;;;;;;7.07;3.73;;;;;;;;;;5033988;28;20920;-63
2022/09/06 03:48:38;;;;;;;6.13;4.40;;;;;;;;;;5028842;28;20462;-63
2022/09/06 03:51:06;;;;;;;5.00;4.17;;;;;;;;;;5028663;28;20434;-63
2022/09/06 03:53:34;;;;;;;7.13;4.73;;;;;;;;;;5030093;28;20447;-63
2022/09/06 03:56:01;;;;;;;7.90;4.17;;;;;;;;;;5032068;28;20480;-63
2022/09/06 03:58:31;;;;;;;4.67;3.90;;;;;;;;;;5033177;28;20454;-63
2022/09/06 04:01:03;;;;;;;5.40;4.40;;;;;;;;;;5034151;28;20515;-63
2022/09/06 04:03:31;;;;;;;5.10;4.30;;;;;;;;;;5030317;28;20478;-63
2022/09/06 04:05:58;;;;;;;4.00;3.60;;;;;;;;;;5014408;28;20505;-63
2022/09/06 04:08:26;;;;;;;7.20;3.50;;;;;;;;;;5015691;28;20435;-63
2022/09/06 04:10:54;;;;;;;3.93;3.53;;;;;;;;;;5033871;28;20440;-64
2022/09/06 04:13:21;;;;;;;4.23;3.67;;;;;;;;;;5014412;28;20438;-65
2022/09/06 04:15:51;;;;;;;10.47;4.40;;;;;;;;;;5013960;28;20497;-63
2022/09/06 04:18:19;;;;;;;6.87;4.07;;;;;;;;;;5030387;28;20860;-63
2022/09/06 04:20:49;;;;;;;4.23;3.77;;;;;;;;;;5033840;28;20948;-62
2022/09/06 04:23:16;;;;;;;4.03;3.50;;;;;;;;;;5016885;28;20978;-63
2022/09/06 04:25:46;;;;;;;11.63;3.50;;;;;;;;;;5014087;28;20457;-62
2022/09/06 04:28:14;;;;;;;5.37;3.77;;;;;;;;;;5028421;28;20438;-63
2022/09/06 04:30:41;;;;;;;5.80;4.00;;;;;;;;;;5023697;28;20447;-63
2022/09/06 04:33:10;;;;;;;5.07;4.10;;;;;;;;;;5013878;28;20439;-63
2022/09/06 04:35:37;;;;;;;4.70;3.87;;;;;;;;;;5022009;28;20444;-63
2022/09/06 04:38:05;;;;;;;7.97;4.13;;;;;;;;;;5033585;28;20446;-63
2022/09/06 04:40:32;;;;;;;5.30;4.33;;;;;;;;;;5025303;28;20486;-63
2022/09/06 04:42:59;;;;;;;5.63;3.53;;;;;;;;;;5014320;28;20478;-63
2022/09/06 04:45:27;;;;;;;4.60;3.77;;;;;;;;;;5013447;28;20934;-63
2022/09/06 04:47:54;;;;;;;4.93;3.90;;;;;;;;;;5015552;28;20582;-63
2022/09/06 04:50:23;;;;;;;4.70;3.80;;;;;;;;;;5033116;28;20445;-63
2022/09/06 04:52:50;;;;;;;6.43;3.57;;;;;;;;;;5030623;28;20431;-63
2022/09/06 04:55:18;;;;;;;4.60;3.40;;;;;;;;;;5013741;28;20446;-63
2022/09/06 04:57:45;;;;;;;5.43;3.70;;;;;;;;;;5013681;28;20525;-63
2022/09/06 05:00:13;;;;;;;4.63;3.80;;;;;;;;;;5032950;28;20434;-63
2022/09/06 05:02:41;;;;;;;4.20;3.80;;;;;;;;;;5032451;28;20581;-63
2022/09/06 05:05:09;;;;;;;4.73;3.60;;;;;;;;;;5013217;28;20450;-63
2022/09/06 05:07:38;;;;;;;6.10;4.53;;;;;;;;;;5013149;28;20447;-63
2022/09/06 05:10:06;;;;;;;6.47;3.97;;;;;;;;;;5031946;28;20529;-63
2022/09/06 05:12:33;;;;;;;4.80;3.77;;;;;;;;;;5033153;28;20445;-63
2022/09/06 05:15:01;;;;;;;5.20;4.20;;;;;;;;;;5013212;28;20446;-63
2022/09/06 05:17:28;;;;;;;4.33;3.63;;;;;;;;;;5012957;28;20747;-63
2022/09/06 05:19:56;;;;;;;7.53;4.30;;;;;;;;;;5028117;28;20966;-63
2022/09/06 05:22:23;;;;;;;8.97;4.93;;;;;;;;;;5018630;28;20505;-63
2022/09/06 05:24:52;;;;;;;5.13;3.60;;;;;;;;;;5012944;28;20484;-63
2022/09/06 05:27:19;;;;;;;6.70;4.87;;;;;;;;;;5023897;28;20438;-63
2022/09/06 05:29:47;;;;;;;7.53;4.27;;;;;;;;;;5032640;28;20441;-63
2022/09/06 05:32:14;;;;;;;6.23;3.57;;;;;;;;;;5021606;28;20529;-63
2022/09/06 05:34:41;;;;;;;4.10;3.70;;;;;;;;;;5021126;28;20458;-63
2022/09/06 05:37:09;;;;;;;4.37;3.70;;;;;;;;;;5032541;28;20442;-63
2022/09/06 05:39:36;;;;;;;7.43;3.67;;;;;;;;;;5028938;28;20449;-64
2022/09/06 05:42:05;;;;;;;4.13;3.07;;;;;;;;;;5032182;28;20461;-63
2022/09/06 05:44:33;;;;;;;5.37;3.30;;;;;;;;;;5015583;28;20542;-63
2022/09/06 05:47:00;;;;;;;3.83;3.43;;;;;;;;;;5030126;28;20473;-62
2022/09/06 05:49:29;;;;;;;4.90;3.10;;;;;;;;;;5020624;28;20434;-63
2022/09/06 05:51:57;;;;;;;5.83;3.20;;;;;;;;;;5032458;28;20442;-63
2022/09/06 05:54:24;;;;;;;10.43;3.37;;;;;;;;;;5018235;28;20455;-63
2022/09/06 05:56:52;;;;;;;8.57;3.77;;;;;;;;;;5012553;28;20489;-63
2022/09/06 05:59:21;;;;;;;6.20;3.47;;;;;;;;;;5024500;28;20492;-63
2022/09/06 06:01:49;;;;;;;6.50;3.37;;;;;;;;;;5025408;28;20435;-63
2022/09/06 06:04:17;;;;;;;4.33;2.60;;;;;;;;;;5032529;28;20477;-63
2022/09/06 06:06:45;;;;;;;4.70;3.03;;;;;;;;;;5029867;28;20438;-63
2022/09/06 06:09:12;;;;;;;5.13;2.50;;;;;;;;;;5031924;28;20441;-63
2022/09/06 06:11:39;;;;;;;6.97;3.70;;;;;;;;;;5029821;28;20963;-63
2022/09/06 06:14:07;;;;;;;4.20;2.77;;;;;;;;;;5020188;28;20450;-63
2022/09/06 06:16:35;;;;;;;4.33;3.00;;;;;;;;;;5049180;28;20440;-63
2022/09/06 06:19:03;;;;;;;3.33;2.97;;;;;;;;;;5036661;28;20445;-63
2022/09/06 06:21:33;;;;;;;3.53;2.80;;;;;;;;;;5032655;28;20571;-63
2022/09/06 06:24:01;;;;;;;4.10;3.00;;;;;;;;;;5031816;28;21071;-63
2022/09/06 06:26:30;;;;;;;8.53;3.10;;;;;;;;;;5032206;28;20802;-64
2022/09/06 06:29:00;;;;;;;5.37;3.37;;;;;;;;;;5032046;28;20852;-63
2022/09/06 06:31:28;;;;;;;3.87;3.00;;;;;;;;;;5032992;28;20466;-63
2022/09/06 06:33:57;;;;;;;3.73;2.80;;;;;;;;;;5032883;28;20461;-63
2022/09/06 06:36:25;;;;;;;4.83;3.00;;;;;;;;;;5035935;28;20921;-64
2022/09/06 06:38:53;;;;;;;9.37;4.63;;;;;;;;;;5035621;28;20559;-63
2022/09/06 06:41:22;;;;;;;5.03;3.10;;;;;;;;;;5032775;28;20442;-64
2022/09/06 06:43:52;;;;;;;7.53;3.30;;;;;;;;;;5022969;28;20481;-63
2022/09/06 06:46:19;;;;;;;7.30;3.27;;;;;;;;;;5033121;28;20441;-63
2022/09/06 06:48:47;;;;;;;9.00;5.83;;;;;;;;;;5020427;28;20516;-64
2022/09/06 06:51:17;;;;;;;9.40;6.10;;;;;;;;;;5017122;28;20442;-63
2022/09/06 06:53:46;;;;;;;12.03;6.37;;;;;;;;;;5035469;28;20474;-63
2022/09/06 06:56:17;;;;;;;20.67;6.07;;;;;;;;;;5035858;28;20443;-63
2022/09/06 06:58:44;;;;;;;6.20;4.47;;;;;;;;;;5035780;28;20473;-63
2022/09/06 07:01:12;;;;;;;8.47;4.90;;;;;;;;;;5035780;28;20477;-63
2022/09/06 07:03:40;;;;;;;10.53;2.93;;;;;;;;;;5028572;28;20477;-64
2022/09/06 07:06:08;;;;;;;6.87;3.80;;;;;;;;;;5035197;28;20444;-63
2022/09/06 07:08:37;;;;;;;5.70;3.53;;;;;;;;;;5035161;28;20504;-63
2022/09/06 07:11:04;;;;;;;4.30;2.87;;;;;;;;;;5034826;28;20439;-63
2022/09/06 07:13:32;;;;;;;8.43;3.33;;;;;;;;;;5034285;28;20469;-63
2022/09/06 07:16:10;;;;;;;6.13;3.10;;;;;;;;;;5034141;28;20442;-63
2022/09/06 07:18:40;;;;;;;4.60;2.80;;;;;;;;;;5032875;28;20917;-63
2022/09/06 07:21:08;;;;;;;7.50;2.70;;;;;;;;;;5033475;28;20828;-63
2022/09/06 07:23:37;;;;;;;6.10;3.00;;;;;;;;;;5033777;28;20491;-64
2022/09/06 07:26:04;;;;;;;4.40;2.70;;;;;;;;;;5037425;28;20526;-63
2022/09/06 07:28:31;;;;;;;6.77;2.93;;;;;;;;;;5033910;28;20535;-63
2022/09/06 07:31:00;;;;;;;3.50;2.17;;;;;;;;;;5049671;28;20526;-63
2022/09/06 07:33:27;;;;;;;5.37;3.07;;;;;;;;;;5040522;28;20435;-63
2022/09/06 07:35:56;;;;;;;5.33;3.03;;;;;;;;;;5043269;28;20533;-64
2022/09/06 07:38:23;;;;;;;3.90;2.93;;;;;;;;;;5039804;28;20479;-63
2022/09/06 07:40:55;;;;;;;3.97;2.80;;;;;;;;;;5040773;28;20474;-63
2022/09/06 07:43:22;;;;;;;5.33;2.63;;;;;;;;;;5043024;28;20494;-64
2022/09/06 07:45:49;;;;;;;4.17;2.40;;;;;;;;;;5041655;28;20495;-64
2022/09/06 07:48:17;;;;;;;8.30;2.73;;;;;;;;;;5040510;28;20515;-63
2022/09/06 07:50:47;;;;;;;4.77;2.30;;;;;;;;;;5041650;28;21875;-63
2022/09/06 07:53:14;;;;;;;5.80;3.07;;;;;;;;;;5040161;28;20526;-63
2022/09/06 07:55:41;;;;;;;6.03;3.07;;;;;;;;;;5040665;28;20799;-63
2022/09/06 07:58:10;;;;;;;5.63;2.90;;;;;;;;;;5042713;28;20469;-64
2022/09/06 08:00:39;;;;;;;5.50;2.53;;;;;;;;;;5040989;28;20480;-63
2022/09/06 08:03:07;;;;;;;5.77;2.77;;;;;;;;;;5037009;28;20453;-63
2022/09/06 08:05:34;;;;;;;4.07;2.23;;;;;;;;;;5040827;28;20472;-64
2022/09/06 08:08:01;;;;;;;3.30;2.10;;;;;;;;;;5042645;28;20441;-64
2022/09/06 08:10:28;;;;;;;7.67;2.33;;;;;;;;;;5040460;28;20446;-64
2022/09/06 08:12:55;;;;;;;3.90;2.17;;;;;;;;;;5040288;28;20474;-64
2022/09/06 08:15:24;;;;;;;9.93;2.40;;;;;;;;;;5042577;28;20441;-64
2022/09/06 08:17:52;;;;;;;4.53;2.60;;;;;;;;;;5040324;28;20975;-64
2022/09/06 08:20:19;;;;;;;3.90;2.07;;;;;;;;;;5041567;28;20986;-63
2022/09/06 08:22:46;;;;;;;6.20;2.53;;;;;;;;;;5039185;28;20480;-64
2022/09/06 08:25:13;;;;;;;6.03;2.13;;;;;;;;;;5037175;28;20524;-63
2022/09/06 08:27:41;;;;;;;5.20;2.50;;;;;;;;;;5035441;28;20477;-64
2022/09/06 08:30:09;;;;;;;4.40;2.40;;;;;;;;;;5033727;28;20473;-63
2022/09/06 08:32:39;;;;;;;5.33;2.73;;;;;;;;;;5036693;28;20473;-64
2022/09/06 08:35:07;;;;;;;5.83;1.90;;;;;;;;;;5037984;28;20476;-64
2022/09/06 08:37:34;;;;;;;4.07;2.30;;;;;;;;;;5035330;28;20484;-66
2022/09/06 08:40:02;;;;;;;6.10;2.10;;;;;;;;;;5033245;28;20446;-64
2022/09/06 08:42:30;;;;;;;4.40;2.60;;;;;;;;;;5032738;28;20441;-64
2022/09/06 08:44:59;;;;;;;4.77;2.37;;;;;;;;;;5033914;28;20493;-63
2022/09/06 08:47:26;;;;;;;4.67;2.20;;;;;;;;;;5031861;28;20481;-64
2022/09/06 08:49:56;;;;;;;5.37;2.77;;;;;;;;;;5032919;28;20492;-64
2022/09/06 08:52:32;;;;;;;5.13;2.60;;;;;;;;;;5028500;28;20438;-64
2022/09/06 08:55:06;;;;;;;4.30;2.30;;;;;;;;;;5031459;28;20437;-64
2022/09/06 08:57:46;;;;;;;5.93;1.70;;;;;;;;;;5038986;28;20936;-64
2022/09/06 09:00:14;;;;;;;3.33;1.87;;;;;;;;;;5048177;28;20499;-64
2022/09/06 09:02:45;;;;;;;3.90;2.03;;;;;;;;;;5040781;28;20436;-64
2022/09/06 09:05:19;;;;;;;5.20;1.93;;;;;;;;;;5046967;28;20485;-64
2022/09/06 09:07:50;;;;;;;5.60;2.10;;;;;;;;;;5047025;28;20445;-64
2022/09/06 09:10:20;;;;;;;6.40;2.30;;;;;;;;;;5040242;28;20975;-64
2022/09/06 09:12:48;;;;;;;5.90;1.50;;;;;;;;;;5042364;28;20460;-64
2022/09/06 09:15:17;;;;;;;4.10;2.00;;;;;;;;;;5045980;28;20496;-65
2022/09/06 09:17:46;;;;;;;4.77;1.50;;;;;;;;;;5046100;28;20433;-65
2022/09/06 09:20:14;;;;;;;3.00;1.43;;;;;;;;;;5041226;28;20438;-65
2022/09/06 09:22:42;;;;;;;4.40;1.90;;;;;;;;;;5039627;28;20935;-65
2022/09/06 09:25:13;;;;;;;3.83;1.40;;;;;;;;;;5040986;28;20480;-65
2022/09/06 09:27:41;;;;;;;2.90;1.30;;;;;;;;;;5043012;28;20935;-65
2022/09/06 09:30:08;;;;;;;5.40;1.50;;;;;;;;;;5043072;28;20441;-65
2022/09/06 09:32:37;;;;;;;3.40;1.47;;;;;;;;;;5036036;28;20504;-65
2022/09/06 09:35:32;;;;;;;2.80;1.30;;;;;;;;;;5031109;28;20442;-64
2022/09/06 09:38:07;;;;;;;3.63;1.30;;;;;;;;;;5015706;28;20438;-65
2022/09/06 09:40:37;;;;;;;3.57;1.00;;;;;;;;;;5039354;28;20487;-65
2022/09/06 09:43:18;;;;;;;4.57;1.77;;;;;;;;;;5036559;28;20471;-65
2022/09/06 09:45:45;;;;;;;3.67;2.13;;;;;;;;;;5035767;28;20527;-65
2022/09/06 09:48:17;;;;;;;3.70;1.97;;;;;;;;;;5038437;28;20534;-63
2022/09/06 09:50:44;;;;;;;2.40;1.30;;;;;;;;;;5035524;28;20446;-62
2022/09/06 09:53:14;;;;;;;2.10;1.10;;;;;;;;;;5035115;28;20466;-63
2022/09/06 09:55:42;;;;;;;3.30;1.03;;;;;;;;;;5034763;28;20519;-63
2022/09/06 09:58:19;;;;;;;2.50;1.10;;;;;;;;;;5037821;28;20959;-63
2022/09/06 10:00:46;;;;;;;2.37;1.20;;;;;;;;;;5036912;28;20448;-64
2022/09/06 10:03:14;;;;;;;4.73;1.40;;;;;;;;;;5034930;28;20806;-63
2022/09/06 10:05:42;;;;;;;3.70;0.90;;;;;;;;;;5040739;28;20484;-63
2022/09/06 10:08:11;;;;;;;2.50;1.27;;;;;;;;;;5042822;28;20448;-63
2022/09/06 10:10:42;;;;;;;2.90;1.40;;;;;;;;;;5041239;28;20774;-63
2022/09/06 10:13:13;;;;;;;2.97;1.13;;;;;;;;;;5042389;28;20539;-64
2022/09/06 10:15:42;;;;;;;2.90;1.13;;;;;;;;;;5040815;28;20493;-63
2022/09/06 10:18:15;;;;;;;1.93;0.80;;;;;;;;;;5041821;28;20441;-65
2022/09/06 10:20:46;;;;;;;3.43;1.17;;;;;;;;;;5041365;28;20478;-63
2022/09/06 10:23:17;;;;;;;3.00;1.10;;;;;;;;;;5037342;28;20555;-64
2022/09/06 10:25:47;;;;;;;2.80;1.00;;;;;;;;;;5036863;28;20676;-63
2022/09/06 10:28:20;;;;;;;3.60;1.20;;;;;;;;;;5034410;28;20442;-63
2022/09/06 10:30:53;;;;;;;2.73;1.20;;;;;;;;;;5033704;28;20528;-63
2022/09/06 10:33:26;;;;;;;2.60;1.40;;;;;;;;;;5035672;28;20480;-63
2022/09/06 10:35:55;;;;;;;2.67;1.17;;;;;;;;;;5036715;28;20495;-64
2022/09/06 10:38:31;;;;;;;2.67;1.20;;;;;;;;;;5035931;28;20433;-63
2022/09/06 10:41:09;;;;;;;2.60;1.10;;;;;;;;;;5034925;28;20448;-63
2022/09/06 10:43:42;;;;;;;2.47;1.10;;;;;;;;;;5039663;28;20444;-63
2022/09/06 10:46:12;;;;;;;4.60;1.10;;;;;;;;;;5049529;28;20436;-63
2022/09/06 10:48:41;;;;;;;3.03;1.27;;;;;;;;;;5050989;28;20562;-63
2022/09/06 10:51:13;;;;;;;3.67;1.07;;;;;;;;;;5049928;28;20449;-64
2022/09/06 10:53:43;;;;;;;2.73;1.00;;;;;;;;;;5048568;28;20860;-63
2022/09/06 10:56:15;;;;;;;3.50;1.43;;;;;;;;;;5046995;28;20770;-63
2022/09/06 10:58:47;;;;;;;2.50;1.70;;;;;;;;;;5046835;28;20526;-63
2022/09/06 11:01:20;;;;;;;3.33;1.37;;;;;;;;;;5048414;28;20923;-64
2022/09/06 11:03:50;;;;;;;3.13;1.20;;;37.70;24.90;;;;;;5045017;28;20574;-64
2022/09/06 11:06:19;;;;;;;3.20;1.20;;;50.90;17.30;;;;;;5049154;28;20480;-63
2022/09/06 11:08:51;;;;;;;3.03;1.30;;;50.80;16.80;;;;;;5048978;28;20452;-64
2022/09/06 11:11:23;;;;;;;3.33;1.63;;;52.00;16.70;;;;;;5040277;28;20435;-64
2022/09/06 11:13:50;;;;;;;2.80;1.30;;;52.90;15.50;;;;;;5047789;28;20460;-63
2022/09/06 11:16:22;;;;;;;5.20;1.50;;;53.10;14.80;;;;;;5043938;28;20446;-63
2022/09/06 11:18:54;;;;;;;2.90;1.30;;;53.00;16.20;;;;;;5046855;28;20472;-64
2022/09/06 11:21:30;;;;;;;3.77;1.30;;;;;;;;;;5036084;28;20538;-64
2022/09/06 11:24:03;;;;;;;4.73;1.47;;;;;;;;;;5046334;28;20488;-63
2022/09/06 11:26:34;;;;;;;7.20;1.60;;;;;;;;;;5027604;28;20926;-63
2022/09/06 11:29:02;;;;;;;3.93;1.37;;;;;;;;;;5037000;28;20972;-64
2022/09/06 11:31:30;;;;;;;4.13;1.60;;;;;;;;;;5033532;28;20446;-63
2022/09/06 11:34:10;;;;;;;2.50;1.50;;;;;;;;;;5038141;28;20441;-63
2022/09/06 11:36:38;;;;;;;2.73;1.30;;;;;;;;;;5042679;28;20527;-63
2022/09/06 11:39:07;;;;;;;6.10;1.43;;;;;;;;;;5037433;28;20468;-63
2022/09/06 11:41:36;;;;;;;4.20;1.87;;;;;;;;;;5039984;28;20458;-63
2022/09/06 11:44:04;;;;;;;3.43;1.60;;;;;;;;;;5040098;28;20499;-63
2022/09/06 11:46:51;;;;;;;6.00;3.87;;;;;;;;;;5041666;28;20495;-63
2022/09/06 11:49:33;;;;;;;6.33;3.20;;;;;;;;;;5038746;28;20948;-63
2022/09/06 11:52:01;;;;;;;5.63;2.10;;;53.50;16.90;;;;;;5037670;28;20449;-63
2022/09/06 11:54:37;;;;;;;3.27;1.50;;;50.30;16.90;;;;;;5037874;28;20531;-62
2022/09/06 11:57:15;;;;;;;5.67;1.93;;;48.60;17.50;;;;;;5038744;28;20470;-63
2022/09/06 11:59:56;;;;;;;7.53;2.40;;;47.70;18.90;;;;;;5039863;28;20566;-63
2022/09/06 12:02:31;;;;;;;5.00;1.90;;;47.30;18.50;;;;;;5039503;28;20477;-62
2022/09/06 12:05:25;;;;;;;5.50;2.10;;;46.60;18.00;;;;;;5039440;28;20433;-63
2022/09/06 12:08:13;;;;;;;7.07;2.47;;;45.20;19.20;;;;;;5023976;28;20456;-63
2022/09/06 12:11:00;;;;;;;5.37;2.40;;;44.00;20.80;;;;;;5038660;28;20437;-62
2022/09/06 12:13:48;;;;;;;8.67;3.13;;;42.90;21.50;;;;;;5039597;28;20943;-63
2022/09/06 12:16:17;;;;;;;8.93;2.67;;;41.90;22.40;;;;;;5036908;28;20525;-62
2022/09/06 12:18:57;;;;;;;13.73;3.20;;;41.60;22.40;;;;;;5041513;28;20957;-62
2022/09/06 12:21:42;;;;;;;8.23;2.87;;;41.60;22.40;;;;;;5039261;28;20481;-63
2022/09/06 12:24:31;;;;;;;11.10;2.60;;;41.60;21.30;;;;;;5037793;28;20441;-63
2022/09/06 12:27:12;;;;;;;13.43;2.80;;;41.00;22.60;;;;;;5036916;28;20481;-62
2022/09/06 12:29:48;;;;;;;14.00;2.60;;;40.70;24.10;;;;;;5035731;28;20461;-62
2022/09/06 12:32:22;;;;;;;6.43;2.53;;;40.40;23.10;;;;;;5035544;28;20476;-63
2022/09/06 12:34:49;;;;;;;12.57;3.93;;;39.80;23.70;;;;;;5037766;28;20542;-62
2022/09/06 12:37:31;;;;;;;11.90;5.20;;;39.60;24.10;;;;;;5035808;28;20442;-62
2022/09/06 12:39:59;;;;;;;7.00;3.30;;;39.40;24.60;;;;;;5035573;28;20445;-62
2022/09/06 12:42:27;;;;;;;6.47;2.30;;;39.30;25.70;;;;;;5037091;28;20477;-62
2022/09/06 12:44:56;;;;;;;10.20;2.60;;;39.10;25.80;;;;;;5039574;28;20438;-63
2022/09/06 12:47:27;;;;;;;6.03;2.53;;;39.00;26.10;;;;;;5037989;28;20491;-63
2022/09/06 12:50:09;;;;;;;8.60;3.10;;;38.80;25.80;;;;;;5038814;28;20440;-63
2022/09/06 12:52:45;;;;;;;5.40;2.50;;;38.70;25.60;;;;;;5031609;28;20496;-64
2022/09/06 12:55:20;;;;;;;7.57;3.10;;;38.70;24.70;;;;;;5033679;28;20500;-62
2022/09/06 12:57:52;;;;;;;6.60;5.00;;;38.50;25.40;;;;;;5035090;28;20495;-62
2022/09/06 13:00:22;;;;;;;9.20;3.87;;;38.10;25.20;;;;;;5033728;28;20445;-62
2022/09/06 13:03:01;;;;;;;8.53;2.60;;;37.90;25.80;;;;;;5034300;28;20504;-62
2022/09/06 13:05:28;;;;;;;9.93;3.20;;;37.60;26.70;;;;;;5031981;28;20461;-62
2022/09/06 13:07:58;;;;;;;6.50;3.20;;;37.40;26.80;;;;;;5032020;28;20541;-63
2022/09/06 13:10:27;;;;;;;8.17;2.80;;;37.20;26.90;;;;;;5032822;28;20481;-63
2022/09/06 13:12:56;;;;;;;10.90;3.03;;;36.90;27.40;;;;;;5032152;28;20472;-63
2022/09/06 13:15:28;;;;;;;12.63;2.80;;;36.50;29.70;;;;;;5032399;28;20495;-63
2022/09/06 13:18:16;;;;;;;8.70;2.50;;;36.20;33.30;;;;;;5032205;28;20448;-66
2022/09/06 13:20:44;;;;;;;7.40;3.20;;;36.00;33.10;;;;;;5031388;28;20448;-63
2022/09/06 13:23:19;;;;;;;7.97;2.40;;;35.90;32.90;;;;;;5031392;28;20860;-63
2022/09/06 13:25:48;;;;;;;7.37;2.40;;;35.70;30.30;;;;;;5031395;28;20520;-62
2022/09/06 13:28:24;;;;;;;7.17;2.90;;;35.10;30.20;;;;;;5031683;28;20486;-62
2022/09/06 13:31:07;;;;;;;9.73;2.90;;;34.50;29.70;;;;;;5031412;28;20446;-64
2022/09/06 13:33:36;;;;;;;6.57;2.80;;;34.20;29.90;;;;;;5038382;28;20962;-62
2022/09/06 13:36:21;;;;;;;5.40;1.93;;;33.90;30.50;;;;;;5045010;28;20485;-62
2022/09/06 13:38:49;;;;;;;8.83;3.70;;;33.80;31.50;;;;;;5044612;28;20468;-62
2022/09/06 13:41:37;;;;;;;13.73;5.47;;;33.50;31.10;;;;;;5045792;28;20469;-62
2022/09/06 13:44:06;;;;;;;12.43;5.80;;;33.40;32.20;;;;;;5048318;28;20876;-63
2022/09/06 13:46:35;;;;;;;9.83;4.10;;;33.40;32.50;;;;;;5047351;28;20867;-62
2022/09/06 13:49:02;;;;;;;6.63;2.30;;;33.40;32.80;;;;;;5043365;28;20463;-63
2022/09/06 13:51:31;;;;;;;9.10;3.53;;;33.30;32.30;;;;;;5043563;28;20441;-62
2022/09/06 13:54:06;;;;;;;6.50;2.80;;;33.20;32.50;;;;;;5043756;28;20541;-63
2022/09/06 13:56:33;;;;;;;6.17;2.17;;;33.00;32.60;;;;;;5043794;28;20527;-63
2022/09/06 13:59:00;;;;;;;6.47;2.73;;;32.60;32.90;;;;;;5047639;28;20491;-62
2022/09/06 14:01:27;;;;;;;7.70;2.17;;;32.30;34.20;;;;;;5042877;28;20920;-63
2022/09/06 14:03:55;;;;;;;7.90;2.40;;;32.10;34.80;;;;;;5042544;28;20528;-63
2022/09/06 14:06:22;;;;;;;9.77;2.87;;;31.90;34.80;;;;;;5044290;28;20536;-65
2022/09/06 14:08:51;;;;;;;8.07;2.57;;;31.70;35.00;;;;;;5044454;28;20472;-64
2022/09/06 14:11:18;;;;;;;11.97;2.67;;;31.70;38.20;;;;;;5040889;28;20441;-65
2022/09/06 14:13:45;;;;;;;10.27;2.83;;;31.60;36.70;;;;;;5044582;28;20480;-64
2022/09/06 14:16:12;;;;;;;7.67;2.67;;;31.60;36.30;;;;;;5044583;28;20532;-64
2022/09/06 14:18:40;;;;;;;10.80;2.70;;;31.50;37.50;;;;;;5043886;28;21027;-65
2022/09/06 14:21:06;;;;;;;11.80;2.63;;;31.30;37.50;;;;;;5040549;28;20445;-64
2022/09/06 14:23:33;;;;;;;7.70;2.27;;;31.20;38.40;;;;;;5040361;28;20528;-64
2022/09/06 14:26:03;;;;;;;6.87;2.30;;;31.10;38.30;;;;;;5040125;28;20469;-64
2022/09/06 14:28:32;;;;;;;8.30;2.30;;;31.10;39.20;;;;;;5040287;28;20774;-65
2022/09/06 14:31:09;;;;;;;8.90;2.57;;;31.00;39.90;;;;;;5042737;28;20536;-65
2022/09/06 14:33:36;;;;;;;11.57;3.00;;;30.90;39.10;;;;;;5039340;28;21102;-64